ラスベガス の空港の天気 - METARとTAF

マッカラン国際空港 ( KLAS / LAS ) - アメリカ ネバダ州ラスベガス
飛行場実況気象(Metar)
観測時間01/21 12:56 PST (01/21 20:56 UTC)
風向・風速北東 3m/s
視程10km以上
天気現象
全天の8割程度の雲 雲底高度 2440m
全天の8割程度の雲 雲底高度 3660m
気温13.9℃
湿度28%
気圧1017.7hPa
METARKLAS 212056Z 05006KT 10SM BKN080 BKN120 14/M04 A3006 RMK AO2 SLP177 VIRGA DSNT SW-W T01391044 58016
過去の天気等 Google飛行場航空写真 Wunderground天気予報

過去48時間のMETAR

飛行場予報(TAF)
発表時間: 1/21 09:40 PST (1/21 17:40 UTC)
予報対象時間: 21日10時 PST ~ 22日16時 PST
風向・風速不定 3m/s
視程10km以上
少しの雲 雲底高度 2740m
全天の4割程度の雲 雲底高度 3960m
21日12時 PST から
風向・風速北 6m/s 瞬間風速 10m/s
視程10km以上
全天の4割程度の雲 雲底高度 2740m
全天の8割程度の雲 雲底高度 3960m
21日14時 PST から
風向・風速北 9m/s 瞬間風速 14m/s
視程10km以上
天気現象周辺でしゅう雨
全天の8割程度の雲 雲底高度 2440m
21日22時 PST から
風向・風速北 7m/s 瞬間風速 11m/s
視程10km以上
全天の8割程度の雲 雲底高度 2740m
22日10時 PST から
風向・風速北北東 7m/s 瞬間風速 11m/s
視程10km以上
全天の4割程度の雲 雲底高度 2740m
KLAS 211740Z 2118/2224 VRB05KT P6SM FEW090 SCT130
FM212000 35012G20KT P6SM SCT090 BKN130
FM212200 01017G27KT P6SM VCSH BKN080
FM220600 35014G22KT P6SM BKN090
FM221800 02014G22KT P6SM SCT090